Time;durP1;ratioP1;P1;durP2;ratioP2;P2;SDS_P1;SDS_P2;PMS_P1;PMS_P2;Temp;Humidity;BMP_temperature;BMP_pressure;BME280_temperature;BME280_humidity;BME280_pressure;Samples;Min_cycle;Max_cycle;Signal;HPM_P1;HPM_P2
2022/11/28 00:01:31;;;;;;;;;;;3.20;88.90;;;;;;5093827;28;19939;-90
2022/11/28 00:03:56;;;;;;;;;;;3.20;88.50;;;;;;5094117;28;19966;-90
2022/11/28 00:06:22;;;;;;;;;;;3.20;88.30;;;;;;5093798;28;20302;-90
2022/11/28 00:08:48;;;;;;;;;;;3.10;88.30;;;;;;5093475;28;19958;-90
2022/11/28 00:11:15;;;;;;;;;;;3.10;88.40;;;;;;5093204;28;19993;-90
2022/11/28 00:13:41;;;;;;;;;;;3.00;89.40;;;;;;5093683;28;19944;-91
2022/11/28 00:16:07;;;;;;;;;;;2.90;89.00;;;;;;5093652;28;19989;-90
2022/11/28 00:18:33;;;;;;;;;;;2.90;89.10;;;;;;5093005;28;19944;-91
2022/11/28 00:20:59;;;;;;;;;;;2.80;89.10;;;;;;5093321;28;20207;-91
2022/11/28 00:23:25;;;;;;;;;;;2.80;89.50;;;;;;5075173;28;20337;-90
2022/11/28 00:25:57;;;;;;;;;;;2.80;89.90;;;;;;5093561;28;19942;-89
2022/11/28 00:28:23;;;;;;;;;;;2.90;90.80;;;;;;5093085;28;19939;-89
2022/11/28 00:30:48;;;;;;;;;;;3.10;90.60;;;;;;5093384;28;20069;-89
2022/11/28 00:33:14;;;;;;;;;;;3.00;90.10;;;;;;5093350;28;19940;-89
2022/11/28 00:35:40;;;;;;;;;;;3.00;90.20;;;;;;5093377;28;20364;-89
2022/11/28 00:38:05;;;;;;;;;;;2.90;89.90;;;;;;5093150;28;20468;-90
2022/11/28 00:40:31;;;;;;;;;;;2.90;90.30;;;;;;5092706;28;20410;-90
2022/11/28 00:42:56;;;;;;;;;;;3.00;90.40;;;;;;5093312;28;20342;-89
2022/11/28 00:45:22;;;;;;;;;;;3.00;90.40;;;;;;5093302;28;20273;-90
2022/11/28 00:47:48;;;;;;;;;;;3.00;90.40;;;;;;5092833;28;20322;-89
2022/11/28 00:50:14;;;;;;;;;;;3.00;90.20;;;;;;5093090;28;19968;-89
2022/11/28 00:52:40;;;;;;;;;;;3.00;90.20;;;;;;5093033;28;19958;-90
2022/11/28 00:55:05;;;;;;;;;;;3.00;90.10;;;;;;5093151;28;19948;-90
2022/11/28 00:57:31;;;;;;;;;;;2.90;90.40;;;;;;5092882;28;19943;-89
2022/11/28 00:59:56;;;;;;;;;;;2.90;90.30;;;;;;5093050;28;20402;-90
2022/11/28 01:02:22;;;;;;;;;;;2.90;89.90;;;;;;5093130;28;19941;-89
2022/11/28 01:04:47;;;;;;;;;;;2.90;89.80;;;;;;5093339;28;19985;-90
2022/11/28 01:07:13;;;;;;;;;;;2.90;89.90;;;;;;5092809;28;20032;-89
2022/11/28 01:09:38;;;;;;;;;;;2.90;89.90;;;;;;5093021;28;19971;-91
2022/11/28 01:12:04;;;;;;;;;;;3.00;90.10;;;;;;5093001;28;19958;-90
2022/11/28 01:14:30;;;;;;;;;;;3.00;89.90;;;;;;5092946;28;19962;-90
2022/11/28 01:16:55;;;;;;;;;;;3.00;89.40;;;;;;5092942;28;19944;-90
2022/11/28 01:19:21;;;;;;;;;;;3.00;89.20;;;;;;5092506;28;19940;-90
2022/11/28 01:21:46;;;;;;;;;;;3.00;88.90;;;;;;5092941;28;19977;-89
2022/11/28 01:24:12;;;;;;;;;;;3.00;89.00;;;;;;5092703;28;20063;-90
2022/11/28 01:26:39;;;;;;;;;;;3.10;88.90;;;;;;5092887;28;19938;-90
2022/11/28 01:29:05;;;;;;;;;;;3.10;88.70;;;;;;5092571;28;19957;-90
2022/11/28 01:31:30;;;;;;;;;;;3.10;88.60;;;;;;5092773;28;19957;-90
2022/11/28 01:33:56;;;;;;;;;;;3.00;88.80;;;;;;5092777;28;19963;-90
2022/11/28 01:36:22;;;;;;;;;;;3.10;88.70;;;;;;5092785;28;20400;-90
2022/11/28 01:38:48;;;;;;;;;;;3.00;88.60;;;;;;5092495;28;19944;-90
2022/11/28 01:41:15;;;;;;;;;;;3.10;88.60;;;;;;5092705;28;19937;-90
2022/11/28 01:43:59;;;;;;;;;;;3.00;88.80;;;;;;5092634;28;19985;-89
2022/11/28 01:46:24;;;;;;;;;;;3.00;88.90;;;;;;5092699;28;19944;-90
2022/11/28 01:48:50;;;;;;;;;;;3.10;88.80;;;;;;5092358;28;19949;-90
2022/11/28 01:51:16;;;;;;;;;;;3.30;89.10;;;;;;5094356;28;19957;-90
2022/11/28 01:53:43;;;;;;;;;;;3.40;88.80;;;;;;5096163;28;19964;-90
2022/11/28 01:56:12;;;;;;;;;;;3.40;88.90;;;;;;5096248;28;19937;-90
2022/11/28 01:58:40;;;;;;;;;;;3.50;88.40;;;;;;5096057;28;19950;-90
2022/11/28 02:01:06;;;;;;;;;;;3.60;88.00;;;;;;5096427;28;19964;-90
2022/11/28 02:03:43;;;;;;;;;;;3.50;87.40;;;;;;5096161;28;19965;-90
2022/11/28 02:06:09;;;;;;;;;;;3.50;87.60;;;;;;5096105;28;19936;-89
2022/11/28 02:08:35;;;;;;;;;;;3.40;87.00;;;;;;5077635;28;19995;-90
2022/11/28 02:11:11;;;;;;;;;;;3.20;87.40;;;;;;5095949;28;19960;-89
2022/11/28 02:13:42;;;;;;;;;;;3.20;88.50;;;;;;5095552;28;19949;-89
2022/11/28 02:16:08;;;;;;;;;;;3.10;89.20;;;;;;5095990;28;20033;-90
2022/11/28 02:18:52;;;;;;;;;;;3.30;89.50;;;;;;5095884;28;20374;-90
2022/11/28 02:21:36;;;;;;;;;;;3.30;89.50;;;;;;5095824;28;19935;-90
2022/11/28 02:24:01;;;;;;;;;;;3.30;89.40;;;;;;5095278;28;19999;-90
2022/11/28 02:26:43;;;;;;;;;;;3.60;89.20;;;;;;5095715;28;20387;-90
2022/11/28 02:29:19;;;;;;;;;;;3.70;89.00;;;;;;5095405;28;19945;-90
2022/11/28 02:32:04;;;;;;;;;;;3.70;88.60;;;;;;5095581;28;19959;-90
2022/11/28 02:34:32;;;;;;;;;;;3.70;88.70;;;;;;5095277;28;19981;-91
2022/11/28 02:37:16;;;;;;;;;;;4.00;88.40;;;;;;5095412;28;19949;-89
2022/11/28 02:39:53;;;;;;;;;;;4.00;87.30;;;;;;5095492;28;19942;-89
2022/11/28 02:42:25;;;;;;;;;;;3.80;86.70;;;;;;5095394;28;20460;-89
2022/11/28 02:44:56;;;;;;;;;;;3.60;86.70;;;;;;5095361;28;19938;-90
2022/11/28 02:47:24;;;;;;;;;;;3.40;86.80;;;;;;5095037;28;19949;-90
2022/11/28 02:49:53;;;;;;;;;;;3.10;88.10;;;;;;5068423;28;19948;-90
2022/11/28 02:52:22;;;;;;;;;;;3.10;88.40;;;;;;5056861;28;19964;-89
2022/11/28 02:54:49;;;;;;;;;;;3.10;89.00;;;;;;5084335;28;19947;-89
2022/11/28 02:57:15;;;;;;;;;;;3.20;88.80;;;;;;5095141;28;19977;-90
2022/11/28 02:59:40;;;;;;;;;;;3.30;88.90;;;;;;5095074;28;19944;-90
2022/11/28 03:02:21;;;;;;;;;;;3.40;88.60;;;;;;5076360;28;19946;-91
2022/11/28 03:04:55;;;;;;;;;;;3.40;88.60;;;;;;5078702;28;19987;-90
2022/11/28 03:07:45;;;;;;;;;;;3.60;88.50;;;;;;5079270;28;19988;-90
2022/11/28 03:10:19;;;;;;;;;;;3.90;88.10;;;;;;5094705;28;19999;-89
2022/11/28 03:13:05;;;;;;;;;;;4.30;86.40;;;;;;5094824;28;20497;-89
2022/11/28 03:15:43;;;;;;;;;;;4.40;84.50;;;;;;5052787;28;19943;-90
2022/11/28 03:18:12;;;;;;;;;;;4.20;84.90;;;;;;5094707;28;19960;-89
2022/11/28 03:20:50;;;;;;;;;;;4.00;85.30;;;;;;5094632;28;20388;-90
2022/11/28 03:23:25;;;;;;;;;;;3.80;85.70;;;;;;5093980;28;19974;-90
2022/11/28 03:25:59;;;;;;;;;;;3.60;86.50;;;;;;5076475;28;19935;-90
2022/11/28 03:28:33;;;;;;;;;;;3.60;86.80;;;;;;5094495;28;20416;-89
2022/11/28 03:30:58;;;;;;;;;;;3.70;87.00;;;;;;5094352;28;19956;-89
2022/11/28 03:33:26;;;;;;;;;;;3.70;86.90;;;;;;5094409;28;19943;-90
2022/11/28 03:35:54;;;;;;;;;;;3.70;87.20;;;;;;5076191;28;19946;-89
2022/11/28 03:38:22;;;;;;;;;;;3.80;87.40;;;;;;5093847;28;19939;-90
2022/11/28 03:40:49;;;;;;;;;;;3.90;87.30;;;;;;5094293;28;20307;-90
2022/11/28 03:43:17;;;;;;;;;;;3.90;87.20;;;;;;5094238;28;20372;-90
2022/11/28 03:45:45;;;;;;;;;;;4.00;87.50;;;;;;5094179;28;19976;-90
2022/11/28 03:48:28;;;;;;;;;;;4.00;87.20;;;;;;5094105;28;19939;-90
2022/11/28 03:51:00;;;;;;;;;;;4.00;87.20;;;;;;5093908;28;20423;-89
2022/11/28 03:53:29;;;;;;;;;;;4.00;87.30;;;;;;5093878;28;19952;-89
2022/11/28 03:56:07;;;;;;;;;;;4.00;87.00;;;;;;5093707;28;19944;-89
2022/11/28 03:58:35;;;;;;;;;;;4.10;87.10;;;;;;5093892;28;19936;-89
2022/11/28 04:01:21;;;;;;;;;;;4.10;86.30;;;;;;5093620;28;20017;-89
2022/11/28 04:03:57;;;;;;;;;;;4.00;86.20;;;;;;5093634;28;20036;-89
2022/11/28 04:06:29;;;;;;;;;;;3.90;86.40;;;;;;5093790;28;19937;-90
2022/11/28 04:09:01;;;;;;;;;;;3.80;86.70;;;;;;5093745;28;19938;-90
2022/11/28 04:11:37;;;;;;;;;;;3.70;87.00;;;;;;5093641;28;19960;-90
2022/11/28 04:14:07;;;;;;;;;;;3.60;87.50;;;;;;5093132;28;19941;-90
2022/11/28 04:16:47;;;;;;;;;;;3.50;88.60;;;;;;5093366;28;19945;-90
2022/11/28 04:19:16;;;;;;;;;;;3.50;89.00;;;;;;5069270;28;19953;-90
2022/11/28 04:22:00;;;;;;;;;;;3.70;89.10;;;;;;5073243;28;19970;-90
2022/11/28 04:24:28;;;;;;;;;;;3.70;88.90;;;;;;5089760;28;19982;-90
2022/11/28 04:26:57;;;;;;;;;;;3.70;88.60;;;;;;5092830;28;20382;-90
2022/11/28 04:29:23;;;;;;;;;;;3.70;88.40;;;;;;5092605;28;19951;-89
2022/11/28 04:31:49;;;;;;;;;;;3.60;88.20;;;;;;5090371;28;19980;-89
2022/11/28 04:34:16;;;;;;;;;;;3.60;88.30;;;;;;5090277;28;19952;-89
2022/11/28 04:36:43;;;;;;;;;;;3.60;88.40;;;;;;5080186;28;19942;-89
2022/11/28 04:39:14;;;;;;;;;;;3.70;88.40;;;;;;5065086;28;19943;-89
2022/11/28 04:41:44;;;;;;;;;;;3.50;88.70;;;;;;5092421;28;19948;-89
2022/11/28 04:44:21;;;;;;;;;;;3.40;89.30;;;;;;5093292;28;20012;-90
2022/11/28 04:46:49;;;;;;;;;;;3.40;89.30;;;;;;5093262;28;19943;-90
2022/11/28 04:49:14;;;;;;;;;;;3.40;89.60;;;;;;5093199;28;19941;-90
2022/11/28 04:51:52;;;;;;;;;;;3.50;89.50;;;;;;5092756;28;20329;-90
2022/11/28 04:54:21;;;;;;;;;;;3.50;89.70;;;;;;5093070;28;19931;-89
2022/11/28 04:57:16;;;;;;;;;;;3.50;89.60;;;;;;5093192;28;19938;-89
2022/11/28 04:59:42;;;;;;;;;;;3.60;89.50;;;;;;5075491;28;19940;-89
2022/11/28 05:02:09;;;;;;;;;;;3.70;89.30;;;;;;5093080;28;19942;-89
2022/11/28 05:04:35;;;;;;;;;;;3.80;89.10;;;;;;5093144;28;19937;-89
2022/11/28 05:07:02;;;;;;;;;;;3.80;89.00;;;;;;5092985;28;19946;-89
2022/11/28 05:09:27;;;;;;;;;;;3.80;88.60;;;;;;5093013;28;20021;-89
2022/11/28 05:11:53;;;;;;;;;;;3.70;87.80;;;;;;5092946;28;20062;-88
2022/11/28 05:14:19;;;;;;;;;;;3.80;87.80;;;;;;5092631;28;19939;-89
2022/11/28 05:16:44;;;;;;;;;;;3.80;87.80;;;;;;5093257;28;20039;-88
2022/11/28 05:19:10;;;;;;;;;;;3.80;87.70;;;;;;5092846;28;20395;-88
2022/11/28 05:21:35;;;;;;;;;;;3.70;88.00;;;;;;5092875;28;20366;-89
2022/11/28 05:24:01;;;;;;;;;;;3.60;88.40;;;;;;5092669;28;20004;-88
2022/11/28 05:26:30;;;;;;;;;;;3.70;89.10;;;;;;5095100;28;19952;-89
2022/11/28 05:28:56;;;;;;;;;;;3.70;89.00;;;;;;5096823;28;19938;-88
2022/11/28 05:31:22;;;;;;;;;;;3.80;89.10;;;;;;5096690;28;19980;-89
2022/11/28 05:33:47;;;;;;;;;;;4.00;89.00;;;;;;5096071;28;19992;-89
2022/11/28 05:36:13;;;;;;;;;;;4.30;87.70;;;;;;5096527;28;19999;-88
2022/11/28 05:38:39;;;;;;;;;;;4.40;86.90;;;;;;5096687;28;20025;-89
2022/11/28 05:41:04;;;;;;;;;;;4.40;86.60;;;;;;5096578;28;19944;-88
2022/11/28 05:43:30;;;;;;;;;;;4.50;86.20;;;;;;5096212;28;19949;-88
2022/11/28 05:45:56;;;;;;;;;;;4.50;86.00;;;;;;5096423;28;19941;-89
2022/11/28 05:48:22;;;;;;;;;;;4.30;86.00;;;;;;5096427;28;19936;-88
2022/11/28 05:50:49;;;;;;;;;;;4.20;86.60;;;;;;5096354;28;20402;-88
2022/11/28 05:53:15;;;;;;;;;;;4.00;86.40;;;;;;5096216;28;20465;-88
2022/11/28 05:55:41;;;;;;;;;;;3.90;86.70;;;;;;5095789;28;19946;-89
2022/11/28 05:58:06;;;;;;;;;;;3.90;86.90;;;;;;5096033;28;20027;-88
2022/11/28 06:00:32;;;;;;;;;;;3.90;87.30;;;;;;5096153;28;19951;-89
2022/11/28 06:02:57;;;;;;;;;;;4.10;87.50;;;;;;5095229;28;19941;-89
2022/11/28 06:05:23;;;;;;;;;;;4.50;86.40;;;;;;5095801;28;19945;-88
2022/11/28 06:07:49;;;;;;;;;;;4.50;86.00;;;;;;5094774;28;19941;-89
2022/11/28 06:10:14;;;;;;;;;;;4.40;86.10;;;;;;5087128;28;19953;-88
2022/11/28 06:12:40;;;;;;;;;;;4.20;86.40;;;;;;5095758;28;19992;-88
2022/11/28 06:15:06;;;;;;;;;;;4.00;86.90;;;;;;5095723;28;19949;-88
2022/11/28 06:17:31;;;;;;;;;;;4.20;87.20;;;;;;5095855;28;20028;-88
2022/11/28 06:19:57;;;;;;;;;;;4.30;87.20;;;;;;5095139;28;20457;-88
2022/11/28 06:22:22;;;;;;;;;;;4.40;86.70;;;;;;5095141;28;20587;-89
2022/11/28 06:24:48;;;;;;;;;;;4.30;86.50;;;;;;5094660;28;20044;-89
2022/11/28 06:27:13;;;;;;;;;;;4.10;87.10;;;;;;5095299;28;20039;-89
2022/11/28 06:29:39;;;;;;;;;;;3.90;87.70;;;;;;5094448;28;19945;-89
2022/11/28 06:32:05;;;;;;;;;;;3.80;88.10;;;;;;5090759;28;19968;-89
2022/11/28 06:34:31;;;;;;;;;;;3.80;88.30;;;;;;5094013;28;20426;-89
2022/11/28 06:36:56;;;;;;;;;;;3.90;88.40;;;;;;5094076;28;19944;-90
2022/11/28 06:39:22;;;;;;;;;;;3.90;88.40;;;;;;5091459;28;19954;-88
2022/11/28 06:41:48;;;;;;;;;;;3.90;88.60;;;;;;5087753;28;20733;-89
2022/11/28 06:44:14;;;;;;;;;;;3.90;89.00;;;;;;5090225;28;20403;-88
2022/11/28 06:46:40;;;;;;;;;;;3.90;88.40;;;;;;5094073;28;19945;-88
2022/11/28 06:49:05;;;;;;;;;;;3.80;88.60;;;;;;5093990;28;19991;-88
2022/11/28 06:51:31;;;;;;;;;;;3.80;89.10;;;;;;5090958;28;20334;-88
2022/11/28 06:53:56;;;;;;;;;;;3.70;89.40;;;;;;5088255;28;19963;-88
2022/11/28 06:56:22;;;;;;;;;;;3.70;89.90;;;;;;5089438;28;19946;-88
2022/11/28 06:58:55;;;;;;;;;;;3.80;89.60;;;;;;5092649;28;19946;-89
2022/11/28 07:01:21;;;;;;;;;;;3.90;88.90;;;;;;5086531;28;19947;-89
2022/11/28 07:03:47;;;;;;;;;;;4.00;88.80;;;;;;5085830;28;19946;-89
2022/11/28 07:06:13;;;;;;;;;;;4.00;88.80;;;;;;5084538;28;19999;-89
2022/11/28 07:08:39;;;;;;;;;;;4.00;88.70;;;;;;5088166;28;19957;-88
2022/11/28 07:11:10;;;;;;;;;;;4.00;88.50;;;;;;5083697;28;19938;-88
2022/11/28 07:13:35;;;;;;;;;;;4.20;88.80;;;;;;5080542;28;19968;-88
2022/11/28 07:16:01;;;;;;;;;;;4.20;88.30;;;;;;5082683;28;20408;-89
2022/11/28 07:18:26;;;;;;;;;;;4.20;88.30;;;;;;5085002;28;19954;-88
2022/11/28 07:20:52;;;;;;;;;;;4.10;88.90;;;;;;5075643;28;19950;-88
2022/11/28 07:23:17;;;;;;;;;;;4.20;88.90;;;;;;5096091;22;19981;-88
2022/11/28 07:25:43;;;;;;;;;;;4.20;88.80;;;;;;5088595;28;19942;-87
2022/11/28 07:28:09;;;;;;;;;;;4.10;88.80;;;;;;5090767;28;19942;-88
2022/11/28 07:30:34;;;;;;;;;;;4.10;88.90;;;;;;5089278;28;19959;-88
2022/11/28 07:33:00;;;;;;;;;;;4.00;89.00;;;;;;5091927;28;19948;-88
2022/11/28 07:35:26;;;;;;;;;;;3.90;89.40;;;;;;5090321;28;19946;-88
2022/11/28 07:37:51;;;;;;;;;;;4.00;89.40;;;;;;5089421;28;20040;-88
2022/11/28 07:40:18;;;;;;;;;;;4.20;89.10;;;;;;5084002;28;19986;-88
2022/11/28 07:42:44;;;;;;;;;;;4.20;88.90;;;;;;5087174;28;19950;-88
2022/11/28 07:45:10;;;;;;;;;;;4.30;89.00;;;;;;5084354;28;19940;-88
2022/11/28 07:47:35;;;;;;;;;;;4.30;89.00;;;;;;5069641;28;19951;-87
2022/11/28 07:50:01;;;;;;;;;;;4.40;88.50;;;;;;5088604;28;20595;-87
2022/11/28 07:52:26;;;;;;;;;;;4.50;88.60;;;;;;5091240;28;19989;-87
2022/11/28 07:54:52;;;;;;;;;;;4.50;88.40;;;;;;5088914;28;19989;-87
2022/11/28 07:57:17;;;;;;;;;;;4.70;88.20;;;;;;5090925;28;19979;-87
2022/11/28 07:59:43;;;;;;;;;;;4.90;88.10;;;;;;5085225;28;20044;-87
2022/11/28 08:02:09;;;;;;;;;;;5.00;87.70;;;;;;5091188;28;19983;-88
2022/11/28 08:04:35;;;;;;;;;;;4.90;87.80;;;;;;5085127;28;20423;-87
2022/11/28 08:07:01;;;;;;;;;;;4.80;87.60;;;;;;5090508;28;19950;-88
2022/11/28 08:09:27;;;;;;;;;;;4.70;87.70;;;;;;5088255;28;20348;-87
2022/11/28 08:11:52;;;;;;;;;;;4.70;87.50;;;;;;5079628;28;19968;-87
2022/11/28 08:14:19;;;;;;;;;;;4.80;87.40;;;;;;5079036;28;19945;-87
2022/11/28 08:16:44;;;;;;;;;;;4.70;87.80;;;;;;5088252;28;19984;-87
2022/11/28 08:19:10;;;;;;;;;;;4.60;88.70;;;;;;5087704;28;20390;-87
2022/11/28 08:21:36;;;;;;;;;;;4.50;88.50;;;;;;5081491;28;19941;-88
2022/11/28 08:24:03;;;;;;;;;;;4.50;88.70;;;;;;5083545;28;20362;-87
2022/11/28 08:26:29;;;;;;;;;;;4.60;88.80;;;;;;5088953;28;19959;-87
2022/11/28 08:28:55;;;;;;;;;;;4.60;88.70;;;;;;5080211;28;19950;-87
2022/11/28 08:31:25;;;;;;;;;;;4.70;88.60;;;;;;5077039;28;20003;-88
2022/11/28 08:33:52;;;;;;;;;;;4.70;88.30;;;;;;5084593;28;19946;-87
2022/11/28 08:36:18;;;;;;;;;;;5.00;88.40;;;;;;5081901;28;19952;-87
2022/11/28 08:38:45;;;;;;;;;;;5.20;86.90;;;;;;5088684;28;19943;-87
2022/11/28 08:41:15;;;;;;;;;;;5.40;86.40;;;;;;5086419;28;19963;-88
2022/11/28 08:43:41;;;;;;;;;;;5.60;85.90;;;;;;5084794;28;19956;-87
2022/11/28 08:46:09;;;;;;;;;;;5.80;85.80;;;;;;5088393;28;19944;-87
2022/11/28 08:48:36;;;;;;;;;;;5.90;84.60;;;;;;5082615;28;19939;-87
2022/11/28 08:51:01;;;;;;;;;;;6.00;83.70;;;;;;5080649;28;20020;-86
2022/11/28 08:53:27;;;;;;;;;;;6.00;83.80;;;;;;5090229;28;20391;-86
2022/11/28 08:55:53;;;;;;;;;;;5.90;83.90;;;;;;5088719;28;19960;-86
2022/11/28 08:58:18;;;;;;;;;;;5.90;84.60;;;;;;5082182;28;20348;-86
2022/11/28 09:00:44;;;;;;;;;;;5.80;85.30;;;;;;5087306;28;19996;-85
2022/11/28 09:03:14;;;;;;;;;;;5.90;86.80;;;;;;5092166;28;19941;-87
2022/11/28 09:05:41;;;;;;;;;;;6.00;87.00;;;;;;5090105;28;19950;-85
2022/11/28 09:08:07;;;;;;;;;;;5.90;87.10;;;;;;5092835;28;20403;-85
2022/11/28 09:10:34;;;;;;;;;;;6.00;87.30;;;;;;5076653;28;20067;-86
2022/11/28 09:13:00;;;;;;;;;;;6.10;86.80;;;;;;5092868;28;19945;-86
2022/11/28 09:15:25;;;;;;;;;;;6.20;86.50;;;;;;5094372;28;19990;-86
2022/11/28 09:17:51;;;;;;;;;;;6.10;85.70;;;;;;5094559;28;19998;-86
2022/11/28 09:20:17;;;;;;;;;;;6.10;85.70;;;;;;5094605;28;19988;-86
2022/11/28 09:22:42;;;;;;;;;;;6.20;86.40;;;;;;5070125;28;19980;-85
2022/11/28 09:25:08;;;;;;;;;;;6.40;86.00;;;;;;5088335;28;19948;-87
2022/11/28 09:27:34;;;;;;;;;;;6.40;85.60;;;;;;5087982;28;19968;-87
2022/11/28 09:29:59;;;;;;;;;;;6.40;85.30;;;;;;5084928;28;19951;-87
2022/11/28 09:32:25;;;;;;;;;;;6.50;85.20;;;;;;5088368;28;19965;-87
2022/11/28 09:34:50;;;;;;;;;;;6.70;85.30;;;;;;5089385;28;20414;-87
2022/11/28 09:37:16;;;;;;;;;;;6.80;85.20;;;;;;5087609;28;20414;-88
2022/11/28 09:39:41;;;;;;;;;;;6.90;85.00;;;;;;5088762;28;19949;-88
2022/11/28 09:42:12;;;;;;;;;;;7.00;84.50;;;;;;5089696;28;20418;-88
2022/11/28 09:44:52;;;;;;;;;;;7.10;84.40;;;;;;5089643;28;19955;-88
2022/11/28 09:47:21;;;;;;;;;;;7.20;83.70;;;;;;5090756;28;19944;-87
2022/11/28 09:50:09;;;;;;;;;;;7.40;80.60;;;;;;5088035;28;19950;-87
2022/11/28 09:52:35;;;;;;;;;;;7.40;80.50;;;;;;5092800;28;19968;-87
2022/11/28 09:55:06;;;;;;;;;;;7.50;80.90;;;;;;5094329;28;19939;-86
2022/11/28 09:57:38;;;;;;;;;;;7.50;80.90;;;;;;5093070;28;19959;-87
2022/11/28 10:00:05;;;;;;;;;;;7.50;80.50;;;;;;5086908;28;19967;-87
2022/11/28 10:02:30;;;;;;;;;;;7.60;79.90;;;;;;5091260;28;19942;-87
2022/11/28 10:04:56;;;;;;;;;;;7.60;79.10;;;;;;5088131;28;20033;-87
2022/11/28 10:07:27;;;;;;;;;;;7.60;79.70;;;;;;5090749;28;19954;-87
2022/11/28 10:10:02;;;;;;;;;;;7.80;80.20;;;;;;5088546;28;19941;-88
2022/11/28 10:12:47;;;;;;;;;;;8.00;78.30;;;;;;5087109;28;20318;-88
2022/11/28 10:15:24;;;;;;;;;;;8.40;77.80;;;;;;5088013;28;19947;-88
2022/11/28 10:18:02;;;;;;;;;;;8.60;76.40;;;;;;5095073;28;19945;-88
2022/11/28 10:20:33;;;;;;;;;;;8.80;76.90;;;;;;5094255;28;19939;-88
2022/11/28 10:23:03;;;;;;;;;;;8.90;75.30;;;;;;5090921;28;19971;-88
2022/11/28 10:25:32;;;;;;;;;;;8.80;73.10;;;;;;5087470;28;19946;-88
2022/11/28 10:27:58;;;;;;;;;;;8.50;72.70;;;;;;5092491;28;20047;-87
2022/11/28 10:30:25;;;;;;;;;;;8.40;72.70;;;;;;5091215;28;20471;-87
2022/11/28 10:32:56;;;;;;;;;;;8.40;72.10;;;;;;5094279;28;19950;-87
2022/11/28 10:35:29;;;;;;;;;;;8.40;71.60;;;;;;5093625;28;19966;-87
2022/11/28 10:37:55;;;;;;;;;;;8.40;72.10;;;;;;5091886;28;19943;-88
2022/11/28 10:40:27;;;;;;;;;;;8.40;71.60;;;;;;5091066;28;19947;-88
2022/11/28 10:42:57;;;;;;;;;;;8.40;71.70;;;;;;5087505;28;20016;-89
2022/11/28 10:45:23;;;;;;;;;;;8.50;71.80;;;;;;5089822;28;21462;-88
2022/11/28 10:48:10;;;;;;;;;;;8.70;70.40;;;;;;5091253;28;19940;-89
2022/11/28 10:50:40;;;;;;;;;;;8.80;69.30;;;;;;5076112;28;19961;-88
2022/11/28 10:53:22;;;;;;;;;;;9.10;68.30;;;;;;5076568;28;20050;-88
2022/11/28 10:56:08;;;;;;;;;;;9.30;67.00;;;;;;5086027;28;19943;-88
2022/11/28 10:58:52;;;;;;;;;;;9.30;65.60;;;;;;5094011;28;19977;-88
2022/11/28 11:01:17;;;;;;;;;;;9.10;66.60;;;;;;5092304;28;20376;-88
2022/11/28 11:03:43;;;;;;;;;;;8.80;68.30;;;;;;5087571;28;19959;-88
2022/11/28 11:06:08;;;;;;;;;;;8.60;68.60;;;;;;5089912;28;19962;-87
2022/11/28 11:08:38;;;;;;;;;;;8.60;68.50;;;;;;5094654;28;20388;-87
2022/11/28 11:11:04;;;;;;;;;;;8.50;68.90;;;;;;5094180;28;19964;-88
2022/11/28 11:13:31;;;;;;;;;;;8.50;69.10;;;;;;5076032;28;19960;-88
2022/11/28 11:15:57;;;;;;;;;;;8.50;68.50;;;;;;5094318;28;20410;-88
2022/11/28 11:18:31;;;;;;;;;;;8.60;68.60;;;;;;5094281;28;19942;-87
2022/11/28 11:21:07;;;;;;;;;;;8.80;68.50;;;;;;5094556;28;19941;-86
2022/11/28 11:23:33;;;;;;;;;;;9.00;68.00;;;;;;5093467;28;20080;-87
2022/11/28 11:25:59;;;;;;;;;;;9.10;67.80;;;;;;5094451;28;20046;-85
2022/11/28 11:28:26;;;;;;;;;;;9.10;67.10;;;;;;5094490;28;19940;-87
2022/11/28 11:31:02;;;;;;;;;;;9.00;66.70;;;;;;5094300;28;19989;-87
2022/11/28 11:33:35;;;;;;;;;;;9.10;67.00;;;;;;5094048;28;19997;-87
2022/11/28 11:36:03;;;;;;;;;;;9.20;66.50;;;;;;5076209;28;19949;-88
2022/11/28 11:38:29;;;;;;;;;;;9.10;66.60;;;;;;5094244;28;19991;-88
2022/11/28 11:40:55;;;;;;;;;;;9.00;67.40;;;;;;5094173;28;19938;-88
2022/11/28 11:43:29;;;;;;;;;;;8.90;67.10;;;;;;5093964;28;19946;-87
2022/11/28 11:46:08;;;;;;;;;;;8.80;68.00;;;;;;5086943;28;19962;-88
2022/11/28 11:48:38;;;;;;;;;;;8.80;68.50;;;;;;5094075;28;19937;-88
2022/11/28 11:51:04;;;;;;;;;;;8.70;68.80;;;;;;5083014;28;19964;-88
2022/11/28 11:53:30;;;;;;;;;;;8.70;69.30;;;;;;5075145;28;19957;-88
2022/11/28 11:55:59;;;;;;;;;;;8.80;68.60;;;;;;5094054;28;19937;-88
2022/11/28 11:58:27;;;;;;;;;;;8.80;66.90;;;;;;5094007;28;19942;-88
2022/11/28 12:00:55;;;;;;;;;;;8.80;67.10;;;;;;5093894;28;19941;-88
2022/11/28 12:03:39;;;;;;;;;;;9.00;66.20;;;;;;5093764;28;19940;-88
2022/11/28 12:06:10;;;;;;;;;;;9.10;65.90;;;;;;5073645;28;19936;-88
2022/11/28 12:08:39;;;;;;;;;;;8.90;66.70;;;;;;5073567;28;20421;-88
2022/11/28 12:11:13;;;;;;;;;;;8.90;66.60;;;;;;5073467;28;20469;-88
2022/11/28 12:13:39;;;;;;;;;;;8.80;67.50;;;;;;5075936;28;19982;-88
2022/11/28 12:16:09;;;;;;;;;;;8.80;68.00;;;;;;5093946;28;19993;-88
2022/11/28 12:18:38;;;;;;;;;;;8.80;66.50;;;;;;5093640;28;20036;-88
2022/11/28 12:21:03;;;;;;;;;;;8.90;65.50;;;;;;5093459;28;19940;-88
2022/11/28 12:23:29;;;;;;;;;;;8.90;65.90;;;;;;5075034;28;20066;-88
2022/11/28 12:26:00;;;;;;;;;;;9.00;66.20;;;;;;5093263;28;19948;-88
2022/11/28 12:28:29;;;;;;;;;;;8.90;66.80;;;;;;5090438;28;19957;-88
2022/11/28 12:31:00;;;;;;;;;;;9.10;66.10;;;;;;5086433;28;19960;-88
2022/11/28 12:33:44;;;;;;;;;;;9.30;64.90;;;;;;5085385;28;19949;-88
2022/11/28 12:36:10;;;;;;;;;;;9.40;64.20;;;;;;5079870;28;20354;-87
2022/11/28 12:38:38;;;;;;;;;;;9.40;63.40;;;;;;5092144;28;20242;-87
2022/11/28 12:41:10;;;;;;;;;;;9.20;64.30;;;;;;5092373;28;19956;-87
2022/11/28 12:43:45;;;;;;;;;;;9.00;65.60;;;;;;5091366;28;19954;-88
2022/11/28 12:46:21;;;;;;;;;;;8.90;66.60;;;;;;5090948;28;19995;-88
2022/11/28 12:48:53;;;;;;;;;;;8.90;67.20;;;;;;5085760;28;19977;-87
2022/11/28 12:51:18;;;;;;;;;;;8.90;67.10;;;;;;5089348;28;20417;-88
2022/11/28 12:54:02;;;;;;;;;;;8.80;67.10;;;;;;5086863;28;19967;-88
2022/11/28 12:56:34;;;;;;;;;;;8.80;67.70;;;;;;5086512;28;20437;-88
2022/11/28 12:59:04;;;;;;;;;;;9.00;67.00;;;;;;5083247;28;19949;-88
2022/11/28 13:01:30;;;;;;;;;;;9.10;66.60;;;;;;5083755;28;20047;-89
2022/11/28 13:04:02;;;;;;;;;;;9.40;65.80;;;;;;5086070;28;20028;-88
2022/11/28 13:06:37;;;;;;;;;;;9.60;64.40;;;;;;5088742;28;20425;-88
2022/11/28 13:09:21;;;;;;;;;;;9.70;63.70;;;;;;5086993;28;19963;-88
2022/11/28 13:11:46;;;;;;;;;;;9.70;63.60;;;;;;5089063;28;19984;-88
2022/11/28 13:14:31;;;;;;;;;;;9.60;64.80;;;;;;5081022;28;20365;-88
2022/11/28 13:17:02;;;;;;;;;;;9.50;66.30;;;;;;5088808;28;19951;-88
2022/11/28 13:19:47;;;;;;;;;;;9.40;66.00;;;;;;5091128;28;19949;-88
2022/11/28 13:22:13;;;;;;;;;;;9.20;66.80;;;;;;5087270;28;20410;-87
2022/11/28 13:24:48;;;;;;;;;;;9.10;65.70;;;;;;5087379;28;19972;-88
2022/11/28 13:27:20;;;;;;;;;;;9.10;67.00;;;;;;5085438;28;19947;-88
2022/11/28 13:29:46;;;;;;;;;;;9.20;68.40;;;;;;5069620;28;20032;-88
2022/11/28 13:32:11;;;;;;;;;;;9.40;67.20;;;;;;5077093;28;19981;-88
2022/11/28 13:34:37;;;;;;;;;;;9.50;65.20;;;;;;5088776;28;19947;-88
2022/11/28 13:37:15;;;;;;;;;;;9.60;64.90;;;;;;5085100;28;19943;-88
2022/11/28 13:39:50;;;;;;;;;;;9.50;65.60;;;;;;5086682;28;20494;-88
2022/11/28 13:42:25;;;;;;;;;;;9.40;66.00;;;;;;5083543;28;20136;-88
2022/11/28 13:45:07;;;;;;;;;;;9.60;66.40;;;;;;5075778;28;19939;-89
2022/11/28 13:47:34;;;;;;;;;;;9.50;66.20;;;;;;5082180;28;19947;-88
2022/11/28 13:50:18;;;;;;;;;;;9.40;66.50;;;;;;5086926;28;20065;-88
2022/11/28 13:52:44;;;;;;;;;;;9.20;66.90;;;;;;5086050;28;20006;-88
2022/11/28 13:55:28;;;;;;;;;;;9.10;68.00;;;;;;5089685;28;20314;-88
2022/11/28 13:57:55;;;;;;;;;;;9.00;68.30;;;;;;5091151;28;19947;-89
2022/11/28 14:00:22;;;;;;;;;;;8.90;68.70;;;;;;5088538;28;19943;-88
2022/11/28 14:02:52;;;;;;;;;;;8.80;69.20;;;;;;5084802;28;19960;-89
2022/11/28 14:05:23;;;;;;;;;;;8.80;70.10;;;;;;5089026;28;19942;-89
2022/11/28 14:07:49;;;;;;;;;;;8.80;70.80;;;;;;5092941;28;19954;-89
2022/11/28 14:10:18;;;;;;;;;;;9.00;71.30;;;;;;5092899;28;19940;-89
2022/11/28 14:12:50;;;;;;;;;;;9.00;70.60;;;;;;5086121;28;19956;-89
2022/11/28 14:15:34;;;;;;;;;;;9.10;70.70;;;;;;5091271;28;19945;-88
2022/11/28 14:18:20;;;;;;;;;;;9.10;71.60;;;;;;5089579;28;19952;-89
2022/11/28 14:21:18;;;;;;;;;;;9.10;70.40;;;;;;5051490;28;20043;-88
2022/11/28 14:23:50;;;;;;;;;;;8.80;70.10;;;;;;5042630;28;20002;-88
2022/11/28 14:26:23;;;;;;;;;;;8.60;71.00;;;;;;5091511;28;19988;-88
2022/11/28 14:28:48;;;;;;;;;;;8.40;71.40;;;;;;5089306;28;19949;-88
2022/11/28 14:31:17;;;;;;;;;;;8.40;71.10;;;;;;5091599;28;19978;-89
2022/11/28 14:33:44;;;;;;;;;;;8.50;70.00;;;;;;5085983;28;19963;-88
2022/11/28 14:36:29;;;;;;;;;;;8.60;69.80;;;;;;5091070;28;20336;-88
2022/11/28 14:39:04;;;;;;;;;;;8.70;69.80;;;;;;5082631;28;19947;-89
2022/11/28 14:41:29;;;;;;;;;;;8.90;69.70;;;;;;5087255;28;20016;-89
2022/11/28 14:44:15;;;;;;;;;;;8.90;70.20;;;;;;5087793;28;20047;-88